Time;durP1;ratioP1;P1;durP2;ratioP2;P2;SDS_P1;SDS_P2;PMS_P1;PMS_P2;Temp;Humidity;BMP_temperature;BMP_pressure;BME280_temperature;BME280_humidity;BME280_pressure;Samples;Min_cycle;Max_cycle;Signal;HPM_P1;HPM_P2
2022/01/30 00:02:18;;;;;;;10.85;7.13;;;;;;;6.72;36.41;95571.88;4990605;28;20226;-56
2022/01/30 00:04:45;;;;;;;12.23;7.40;;;;;;;6.66;36.09;95570.13;4990071;28;20694;-56
2022/01/30 00:07:12;;;;;;;12.98;7.10;;;;;;;6.17;36.66;95577.94;4991092;28;20206;-58
2022/01/30 00:09:39;;;;;;;12.10;6.55;;;;;;;6.23;36.68;95577.09;4989856;28;20206;-55
2022/01/30 00:12:06;;;;;;;12.05;6.68;;;;;;;6.20;37.03;95569.72;4990961;28;20737;-56
2022/01/30 00:14:36;;;;;;;10.43;6.88;;;;;;;6.46;36.50;95561.69;4990053;28;20206;-55
2022/01/30 00:17:11;;;;;;;10.80;7.03;;;;;;;6.26;36.90;95576.66;4990511;28;20238;-55
2022/01/30 00:19:45;;;;;;;11.32;7.18;;;;;;;6.36;37.04;95565.78;4989580;28;20767;-56
2022/01/30 00:22:37;;;;;;;12.68;7.95;;;;;;;6.19;37.04;95565.53;4990111;28;20218;-52
2022/01/30 00:25:07;;;;;;;18.60;11.25;;;;;;;6.17;37.19;95546.72;4989990;28;20210;-53
2022/01/30 00:27:48;;;;;;;25.00;12.82;;;;;;;6.27;37.41;95554.84;4989328;28;20287;-52
2022/01/30 00:30:17;;;;;;;21.30;13.02;;;;;;;6.36;37.82;95553.59;4990224;28;20187;-53
2022/01/30 00:32:44;;;;;;;26.48;15.75;;;;;;;6.27;37.74;95544.44;5005443;28;20214;-54
2022/01/30 00:35:36;;;;;;;29.08;16.40;;;;;;;6.15;37.68;95539.13;4989849;28;20644;-55
2022/01/30 00:38:11;;;;;;;30.88;16.70;;;;;;;5.66;38.93;95540.81;4989560;28;20249;-56
2022/01/30 00:40:38;;;;;;;30.80;16.63;;;;;;;6.07;38.23;95530.78;4990282;28;20253;-55
2022/01/30 00:43:07;;;;;;;31.52;17.48;;;;;;;5.93;38.08;95529.31;4989516;28;20226;-54
2022/01/30 00:45:35;;;;;;;33.28;18.75;;;;;;;5.73;38.72;95533.81;4989734;28;20194;-54
2022/01/30 00:48:02;;;;;;;31.65;17.45;;;;;;;5.63;38.47;95528.25;4989618;28;20274;-56
2022/01/30 00:50:30;;;;;;;31.10;18.02;;;;;;;5.28;39.35;95545.22;5005006;28;20297;-58
2022/01/30 00:52:57;;;;;;;32.97;18.15;;;;;;;4.85;40.07;95547.59;4989264;28;20268;-58
2022/01/30 00:55:29;;;;;;;32.50;18.60;;;;;;;4.89;40.34;95541.75;4990023;28;20196;-52
2022/01/30 00:57:57;;;;;;;36.50;18.55;;;;;;;4.78;40.48;95534.59;4988861;28;20211;-55
2022/01/30 01:00:25;;;;;;;30.52;18.00;;;;;;;4.97;39.90;95528.56;5005228;28;20217;-55
2022/01/30 01:02:52;;;;;;;33.45;18.45;;;;;;;4.40;41.15;95518.13;4989768;28;20254;-54
2022/01/30 01:05:20;;;;;;;30.95;18.15;;;;;;;4.52;41.06;95519.09;4986961;28;20198;-56
2022/01/30 01:07:52;;;;;;;29.63;16.75;;;;;;;4.40;40.71;95489.56;5004946;28;20209;-55
2022/01/30 01:23:45;;;;;;;29.50;17.08;;;;;;;4.54;40.25;95498.94;4991654;28;20606;-54
2022/01/30 01:26:12;;;;;;;31.08;17.60;;;;;;;4.68;40.03;95492.72;4993413;28;20261;-53
2022/01/30 01:28:40;;;;;;;26.10;15.68;;;;;;;4.65;39.96;95482.72;4993461;28;20201;-54
2022/01/30 01:31:06;;;;;;;29.30;17.35;;;;;;;4.77;39.53;95478.50;4994002;28;20198;-55
2022/01/30 01:33:52;;;;;;;25.60;14.95;;;;;;;4.41;39.88;95491.19;4993332;28;20194;-56
2022/01/30 01:36:19;;;;;;;27.45;15.45;;;;;;;4.62;39.63;95467.56;5008451;28;20560;-54
2022/01/30 01:38:46;;;;;;;27.23;15.75;;;;;;;4.38;39.54;95465.63;5008244;28;20641;-53
2022/01/30 01:41:19;;;;;;;26.38;14.75;;;;;;;4.45;39.79;95461.25;4992307;28;20624;-55
2022/01/30 01:43:51;;;;;;;26.83;15.32;;;;;;;4.56;39.57;95452.03;4991582;28;20233;-55
2022/01/30 01:46:24;;;;;;;26.20;15.02;;;;;;;4.53;39.68;95458.41;4993457;28;20230;-53
2022/01/30 01:48:53;;;;;;;28.20;14.98;;;;;;;4.53;39.30;95455.81;4993188;28;20194;-53
2022/01/30 01:51:25;;;;;;;28.08;14.80;;;;;;;4.37;39.44;95448.47;5008620;28;20195;-55
2022/01/30 01:53:58;;;;;;;26.67;15.45;;;;;;;4.40;39.36;95437.69;5024139;28;20588;-53
2022/01/30 01:56:27;;;;;;;26.65;14.35;;;;;;;4.34;39.28;95443.72;5008609;28;20297;-53
2022/01/30 01:59:14;;;;;;;25.30;14.65;;;;;;;4.35;39.36;95450.47;4991636;28;20198;-55
2022/01/30 02:02:10;;;;;;;29.65;14.25;;;;;;;4.30;39.45;95426.13;4991640;28;20215;-53
2022/01/30 02:04:41;;;;;;;24.40;14.57;;;;;;;4.19;39.35;95440.53;4992689;28;20218;-52
2022/01/30 02:09:41;;;;;;;21.25;12.40;;;;;;;4.17;39.39;95436.53;5007785;28;20217;-54
2022/01/30 02:12:18;;;;;;;24.10;12.52;;;;;;;3.99;39.68;95429.41;4993148;28;20286;-55
2022/01/30 02:25:56;;;;;;;20.15;11.27;;;;;;;3.96;39.54;95425.41;5007521;28;20206;-55
2022/01/30 02:28:24;;;;;;;18.17;10.82;;;;;;;3.74;39.84;95426.63;4990808;28;20212;-53
2022/01/30 02:31:14;;;;;;;19.13;11.45;;;;;;;3.52;40.20;95421.84;4992457;28;20201;-55
2022/01/30 02:33:42;;;;;;;23.42;12.02;;;;;;;3.44;40.33;95414.25;4990756;28;20634;-51
2022/01/30 02:36:09;;;;;;;20.38;11.95;;;;;;;3.15;40.66;95405.06;5007487;28;20202;-56
2022/01/30 02:38:37;;;;;;;18.52;11.20;;;;;;;3.57;39.88;95406.50;5007277;28;20289;-56
2022/01/30 02:41:04;;;;;;;20.63;11.98;;;;;;;3.59;39.75;95391.56;4990986;28;20646;-56
2022/01/30 02:43:47;;;;;;;21.05;12.30;;;;;;;4.03;39.38;95389.13;5007100;28;20234;-55
2022/01/30 02:46:30;;;;;;;23.13;12.88;;;;;;;3.91;39.59;95380.34;5023723;28;20205;-55
2022/01/30 02:49:11;;;;;;;24.65;13.38;;;;;;;3.83;39.51;95377.97;5006586;28;20209;-54
2022/01/30 02:51:46;;;;;;;22.23;12.57;;;;;;;3.93;39.19;95378.34;4992406;28;20228;-56
2022/01/30 02:54:14;;;;;;;21.73;13.10;;;;;;;3.96;39.48;95389.09;5006399;28;20202;-54
2022/01/30 02:56:42;;;;;;;21.98;12.32;;;;;;;3.92;39.39;95374.19;5007179;28;20206;-55
2022/01/30 02:59:11;;;;;;;21.13;12.52;;;;;;;3.42;40.05;95365.25;5006666;28;20269;-54
2022/01/30 03:01:38;;;;;;;22.50;12.95;;;;;;;3.59;40.06;95370.81;5007264;28;20983;-52
2022/01/30 03:04:07;;;;;;;22.98;13.20;;;;;;;3.52;40.60;95364.84;4991238;28;20230;-55
2022/01/30 03:06:35;;;;;;;21.75;13.18;;;;;;;3.62;40.28;95365.22;4991749;28;20205;-55
2022/01/30 03:09:08;;;;;;;23.13;14.35;;;;;;;3.64;40.17;95365.81;5006430;28;20217;-55
2022/01/30 03:11:35;;;;;;;24.67;13.93;;;;;;;3.75;39.93;95362.63;4990016;28;20208;-53
2022/01/30 03:14:04;;;;;;;26.08;15.48;;;;;;;3.86;39.74;95372.38;4990003;28;20705;-56
2022/01/30 03:16:32;;;;;;;29.45;16.83;;;;;;;3.62;40.41;95354.88;4989791;28;20718;-55
2022/01/30 03:19:01;;;;;;;27.88;15.85;;;;;;;3.68;40.22;95369.63;5006171;28;20660;-56
2022/01/30 03:21:27;;;;;;;23.23;13.23;;;;;;;3.48;40.09;95376.59;5006632;28;20604;-55
2022/01/30 03:23:54;;;;;;;22.58;13.20;;;;;;;3.51;40.26;95383.97;5006077;28;20226;-55
2022/01/30 03:26:21;;;;;;;22.30;12.35;;;;;;;2.97;41.18;95366.78;4989946;28;20210;-54
2022/01/30 03:29:14;;;;;;;22.98;13.02;;;;;;;3.18;40.82;95365.03;4990920;28;20289;-56
2022/01/30 03:31:44;;;;;;;23.27;12.65;;;;;;;3.31;40.85;95362.44;4991429;28;20199;-53
2022/01/30 03:34:12;;;;;;;21.52;13.38;;;;;;;3.43;40.06;95371.22;4989805;28;20209;-56
2022/01/30 03:36:58;;;;;;;26.52;14.35;;;;;;;3.41;40.19;95344.72;4991494;28;20208;-53
2022/01/30 03:39:25;;;;;;;23.63;13.45;;;;;;;3.57;40.57;95367.63;4989261;28;20201;-54
2022/01/30 03:41:51;;;;;;;22.70;13.00;;;;;;;3.73;40.12;95370.59;4989918;28;20272;-55
2022/01/30 03:44:19;;;;;;;19.77;12.30;;;;;;;3.73;39.82;95372.38;5004624;28;20662;-53
2022/01/30 03:46:47;;;;;;;23.83;13.52;;;;;;;3.50;40.15;95372.03;4991310;28;20670;-52
2022/01/30 03:49:24;;;;;;;21.20;12.57;;;;;;;3.35;40.42;95363.66;5005763;28;20214;-56
2022/01/30 03:51:52;;;;;;;23.83;14.07;;;;;;;3.42;40.43;95364.44;4989501;28;20206;-56
2022/01/30 03:54:24;;;;;;;26.88;15.77;;;;;;;3.17;41.00;95371.22;4988983;28;20206;-55
2022/01/30 03:56:51;;;;;;;33.58;17.27;;;;;;;3.21;41.04;95357.69;5005793;28;20195;-55
2022/01/30 03:59:23;;;;;;;38.03;19.80;;;;;;;3.05;41.22;95364.03;5005159;28;20228;-56
2022/01/30 04:01:50;;;;;;;31.73;17.70;;;;;;;3.17;41.06;95371.22;4989721;28;20210;-58
2022/01/30 04:04:18;;;;;;;27.38;17.60;;;;;;;3.10;41.16;95366.03;5005294;28;20230;-55
2022/01/30 04:06:45;;;;;;;36.00;18.77;;;;;;;3.17;40.95;95366.84;5022344;28;20210;-56
2022/01/30 04:09:32;;;;;;;33.33;17.20;;;;;;;2.56;42.07;95357.53;4990220;28;20299;-58
2022/01/30 04:12:22;;;;;;;32.58;15.80;;;;;;;2.98;41.43;95355.47;5005745;28;20289;-55
2022/01/30 04:15:03;;;;;;;25.85;15.35;;;;;;;3.10;41.34;95353.88;5005530;28;20616;-56
2022/01/30 04:17:58;;;;;;;27.63;15.07;;;;;;;2.94;41.18;95362.03;4989889;28;20416;-52
2022/01/30 04:20:34;;;;;;;26.33;14.10;;;;;;;2.84;41.68;95350.47;5005576;28;20713;-56
2022/01/30 04:23:10;;;;;;;22.02;13.45;;;;;;;2.66;41.80;95327.75;4990012;28;20257;-59
2022/01/30 04:25:45;;;;;;;21.90;12.77;;;;;;;2.71;41.91;95327.94;4990295;28;20186;-60
2022/01/30 04:28:39;;;;;;;23.75;12.88;;;;;;;2.22;42.36;95308.50;4981424;28;20268;-54
2022/01/30 04:31:42;;;;;;;20.63;10.23;;;;;;;2.59;41.44;95311.38;4987825;28;20206;-55
2022/01/30 04:34:32;;;;;;;20.55;11.80;;;;;;;2.77;41.04;95280.56;4987461;28;20709;-55
2022/01/30 04:37:54;;;;;;;22.00;12.05;;;;;;;2.95;41.16;95290.34;4990361;28;20206;-52
2022/01/30 05:01:15;;;;;;;17.73;9.70;;;;;;;2.90;41.14;95303.88;5005267;28;20202;-57
2022/01/30 05:04:14;;;;;;;16.85;9.85;;;;;;;2.97;40.68;95309.06;4989858;28;20223;-53
2022/01/30 05:09:58;;;;;;;18.23;10.00;;;;;;;3.15;40.53;95295.53;4998866;28;20214;-59
2022/01/30 05:12:47;;;;;;;22.98;12.73;;;;;;;2.53;41.36;95290.69;5004585;28;20202;-56
2022/01/30 05:15:42;;;;;;;15.10;8.50;;;;;;;1.75;42.47;95263.59;4990216;28;20602;-54
2022/01/30 05:18:18;;;;;;;15.65;8.95;;;;;;;2.35;41.66;95252.47;4989199;28;20222;-54
2022/01/30 05:21:06;;;;;;;21.38;9.75;;;;;;;2.21;41.59;95239.72;4989848;28;20209;-55
2022/01/30 05:23:52;;;;;;;22.33;10.13;;;;;;;2.61;41.48;95213.69;5004157;28;20234;-54
2022/01/30 05:26:27;;;;;;;22.15;12.10;;;;;;;2.77;40.95;95231.41;4988335;28;20252;-51
2022/01/30 05:29:17;;;;;;;25.55;11.88;;;;;;;3.14;40.49;95217.03;4987674;28;20211;-56
2022/01/30 05:31:51;;;;;;;25.38;13.05;;;;;;;3.17;40.88;95215.84;4988362;28;20247;-54
2022/01/30 05:34:37;;;;;;;22.27;13.57;;;;;;;3.12;40.62;95213.84;4989161;28;20232;-54
2022/01/30 05:37:19;;;;;;;27.25;14.05;;;;;;;3.20;40.74;95226.59;4988272;28;20240;-54
2022/01/30 05:40:25;;;;;;;26.70;14.00;;;;;;;2.55;41.60;95237.78;5007625;28;20348;-53
2022/01/30 05:43:16;;;;;;;27.48;14.30;;;;;;;2.17;42.59;95239.31;4989816;28;20217;-55
2022/01/30 05:46:14;;;;;;;34.08;17.38;;;;;;;2.96;40.83;95261.69;4993968;28;20198;-56
2022/01/30 05:48:59;;;;;;;41.45;18.48;;;;;;;3.15;40.93;95274.81;4988258;28;20206;-56
2022/01/30 05:51:32;;;;;;;36.17;17.80;;;;;;;3.29;41.05;95281.56;5004941;28;20601;-55
2022/01/30 05:54:13;;;;;;;35.95;16.73;;;;;;;2.43;42.53;95274.75;5020307;28;20287;-54
2022/01/30 05:56:40;;;;;;;39.97;18.00;;;;;;;2.62;42.42;95267.03;5004395;28;20206;-54
2022/01/30 05:59:16;;;;;;;23.88;11.43;;;;;;;1.93;43.10;95269.03;5004238;28;20253;-55
2022/01/30 06:02:02;;;;;;;24.30;10.63;;;;;;;1.38;44.89;95263.19;4990578;28;20212;-55
2022/01/30 06:04:30;;;;;;;10.50;5.22;;;;;;;0.47;46.46;95248.63;5004435;28;20238;-55
2022/01/30 06:06:59;;;;;;;19.08;10.60;;;;;;;1.50;44.88;95257.31;4990039;28;20206;-53
2022/01/30 06:09:26;;;;;;;21.40;10.95;;;;;;;1.73;45.05;95242.31;4991684;28;20269;-55
2022/01/30 06:11:55;;;;;;;21.17;10.88;;;;;;;1.82;44.48;95235.22;5009275;28;20195;-56
2022/01/30 06:14:23;;;;;;;21.98;11.68;;;;;;;1.83;44.99;95221.28;5008037;28;20681;-56
2022/01/30 06:17:04;;;;;;;19.48;9.68;;;;;;;2.04;44.17;95209.03;4991654;28;20234;-56
2022/01/30 06:19:49;;;;;;;24.38;11.73;;;;;;;2.43;44.10;95212.69;4992912;28;20304;-54
2022/01/30 06:22:35;;;;;;;25.27;12.38;;;;;;;2.97;42.87;95182.25;4993480;28;20216;-54
2022/01/30 06:25:21;;;;;;;24.63;12.35;;;;;;;3.37;42.18;95185.53;4993195;28;20625;-56
2022/01/30 06:28:14;;;;;;;27.05;13.80;;;;;;;3.73;41.26;95198.75;4984021;28;20235;-55
2022/01/30 06:30:52;;;;;;;26.15;13.93;;;;;;;3.88;41.16;95207.88;4992944;28;20179;-56
2022/01/30 06:33:38;;;;;;;25.58;12.98;;;;;;;3.91;41.44;95199.69;4992454;28;20256;-57
2022/01/30 06:36:27;;;;;;;21.23;11.65;;;;;;;3.90;41.50;95197.31;4992646;28;20334;-56
2022/01/30 06:39:21;;;;;;;22.45;11.13;;;;;;;3.91;41.46;95188.50;4997792;28;20313;-58
2022/01/30 06:41:57;;;;;;;22.48;11.55;;;;;;;4.04;41.56;95191.84;4991169;28;20269;-56
2022/01/30 06:44:43;;;;;;;22.15;10.05;;;;;;;3.97;41.30;95203.25;4992144;28;20360;-56
2022/01/30 06:47:29;;;;;;;18.02;8.98;;;;;;;3.99;40.87;95214.22;4992803;28;20221;-54
2022/01/30 06:50:16;;;;;;;19.00;9.13;;;;;;;4.27;40.22;95232.78;4991704;28;20217;-54
2022/01/30 06:52:48;;;;;;;39.60;19.27;;;;;;;4.21;40.05;95236.25;4992510;28;20218;-55
2022/01/30 06:55:48;;;;;;;29.45;14.13;;;;;;;4.61;39.83;95210.84;4983256;28;20213;-54
2022/01/30 06:58:33;;;;;;;20.98;10.57;;;;;;;4.79;39.61;95203.91;5001195;28;20225;-53
2022/01/30 07:01:19;;;;;;;21.52;11.82;;;;;;;4.16;40.14;95184.19;4997198;28;20220;-54
2022/01/30 07:03:55;;;;;;;23.58;12.25;;;;;;;4.63;39.61;95178.50;4996597;28;20225;-55
2022/01/30 07:07:03;;;;;;;26.83;12.98;;;;;;;5.03;39.11;95195.34;5001393;28;20212;-55
2022/01/30 07:09:31;;;;;;;27.90;15.02;;;;;;;4.63;39.39;95201.84;4999289;28;20198;-55
2022/01/30 07:11:58;;;;;;;23.60;12.82;;;;;;;5.10;38.98;95185.66;5000401;28;20205;-56
2022/01/30 07:14:25;;;;;;;30.55;15.85;;;;;;;5.26;39.12;95186.09;5000775;28;20261;-53
2022/01/30 07:16:52;;;;;;;23.33;11.73;;;;;;;4.49;39.39;95171.78;5004378;28;20246;-55
2022/01/30 07:19:19;;;;;;;22.83;11.50;;;;;;;4.32;40.29;95181.13;4992802;28;20627;-51
2022/01/30 07:21:46;;;;;;;22.83;11.98;;;;;;;4.94;39.49;95177.63;4996992;28;20271;-55
2022/01/30 07:24:14;;;;;;;21.35;12.30;;;;;;;5.08;39.13;95179.91;4998870;28;20218;-57
2022/01/30 07:26:41;;;;;;;28.52;11.95;;;;;;;4.26;40.17;95181.94;5002711;28;20764;-56
2022/01/30 07:29:08;;;;;;;21.33;11.82;;;;;;;4.68;39.63;95189.03;5002130;28;20203;-57
2022/01/30 07:31:35;;;;;;;24.70;12.23;;;;;;;5.11;39.28;95196.84;4994018;28;20640;-54
2022/01/30 07:34:02;;;;;;;22.25;11.73;;;;;;;5.47;38.98;95202.09;5003991;28;20304;-55
2022/01/30 07:36:33;;;;;;;24.50;12.93;;;;;;;5.06;38.92;95197.50;4998441;28;20268;-56
2022/01/30 07:39:00;;;;;;;29.45;13.32;;;;;;;4.71;39.59;95204.16;4995282;28;20265;-56
2022/01/30 07:41:27;;;;;;;25.75;13.85;;;;;;;4.86;39.23;95193.47;4992018;28;20697;-55
2022/01/30 07:43:54;;;;;;;24.55;13.85;;;;;;;4.53;40.00;95214.47;4991038;28;20272;-55
2022/01/30 07:46:25;;;;;;;27.60;13.25;;;;;;;4.48;40.17;95197.97;4990103;28;20206;-56
2022/01/30 07:48:52;;;;;;;21.88;12.95;;;;;;;3.93;40.90;95217.63;4992384;28;20203;-52
2022/01/30 07:51:19;;;;;;;26.70;14.50;;;;;;;4.48;42.46;95203.94;4995973;28;20562;-55
2022/01/30 07:53:47;;;;;;;23.45;13.25;;;;;;;4.29;44.28;95204.06;4998021;28;20209;-56
2022/01/30 07:56:14;;;;;;;23.88;12.68;;;;;;;4.53;42.18;95198.91;4991634;28;20202;-53
2022/01/30 07:58:41;;;;;;;28.77;12.85;;;;;;;5.29;39.66;95196.09;4997859;28;20689;-55
2022/01/30 08:01:08;;;;;;;29.20;14.63;;;;;;;5.04;39.84;95176.13;4999982;28;20194;-61
2022/01/30 08:03:35;;;;;;;25.83;14.00;;;;;;;5.09;39.73;95176.28;5002449;28;20246;-53
2022/01/30 08:06:02;;;;;;;28.85;14.50;;;;;;;5.11;39.54;95171.66;5000872;28;20194;-56
2022/01/30 08:08:29;;;;;;;31.83;13.50;;;;;;;5.16;39.12;95164.00;4994821;28;20202;-55
2022/01/30 08:10:56;;;;;;;50.28;25.92;;;;;;;5.01;40.17;95171.38;4990317;28;20272;-56
2022/01/30 08:13:23;;;;;;;30.08;15.95;;;;;;;5.31;39.15;95142.09;4992999;28;20187;-63
2022/01/30 08:15:50;;;;;;;23.52;13.80;;;;;;;6.02;38.77;95143.06;5000758;28;20206;-55
2022/01/30 08:18:17;;;;;;;33.25;15.68;;;;;;;6.75;37.64;95139.13;4994265;28;20237;-56
2022/01/30 08:20:44;;;;;;;26.38;14.50;;;;;;;6.76;37.57;95145.13;4998692;28;20733;-55
2022/01/30 08:23:13;;;;;;;25.25;13.13;;;;;;;6.88;36.72;95144.13;5001273;28;20201;-55
2022/01/30 08:25:40;;;;;;;31.80;15.60;;;;;;;6.57;37.13;95152.25;5019623;28;20253;-55
2022/01/30 08:28:07;;;;;;;23.92;13.50;;;;;;;6.43;37.70;95150.06;4998941;28;20221;-56
2022/01/30 08:30:35;;;;;;;28.05;14.05;;;;;;;5.88;37.90;95142.44;4996717;28;20724;-57
2022/01/30 08:33:02;;;;;;;33.42;13.70;;;;;;;5.74;37.90;95150.59;5000205;28;20193;-57
2022/01/30 08:35:30;;;;;;;29.67;13.75;;;;;;;6.81;36.93;95148.66;4999862;28;20193;-55
2022/01/30 08:37:58;;;;;;;26.60;13.93;;;;;;;6.48;37.29;95153.59;4996173;28;20199;-55
2022/01/30 08:40:26;;;;;;;28.80;13.77;;;;;;;6.95;37.11;95144.03;4992101;28;20194;-59
2022/01/30 08:42:54;;;;;;;24.17;13.68;;;;;;;6.59;36.99;95155.41;4998009;28;20193;-58
2022/01/30 08:45:21;;;;;;;91.80;55.22;;;;;;;5.85;40.12;95149.88;5002055;28;20230;-60
2022/01/30 08:47:51;;;;;;;39.63;19.95;;;;;;;6.18;37.65;95145.81;5002442;28;21026;-58
2022/01/30 08:50:20;;;;;;;32.17;15.00;;;;;;;6.78;37.64;95159.53;5000142;28;20202;-57
2022/01/30 08:52:48;;;;;;;30.23;16.58;;;;;;;7.72;37.83;95155.84;4994272;28;20265;-57
2022/01/30 08:55:16;;;;;;;27.05;16.73;;;;;;;8.01;37.87;95147.00;4993136;28;20256;-59
2022/01/30 08:57:44;;;;;;;30.95;15.73;;;;;;;8.31;35.96;95137.13;5007436;28;20229;-59
2022/01/30 09:00:13;;;;;;;30.08;17.45;;;;;;;8.51;34.88;95140.09;5009243;28;20198;-57
2022/01/30 09:02:40;;;;;;;31.80;17.80;;;;;;;7.93;35.33;95147.38;5009238;28;20194;-57
2022/01/30 09:05:08;;;;;;;28.38;16.63;;;;;;;8.41;35.05;95152.94;5008337;28;20990;-58
2022/01/30 09:07:38;;;;;;;33.50;17.02;;;;;;;8.93;34.35;95156.16;5009309;28;20277;-58
2022/01/30 09:10:07;;;;;;;30.83;17.05;;;;;;;9.25;34.41;95156.38;5008872;28;20212;-57
2022/01/30 09:12:36;;;;;;;24.67;13.10;;;;;;;8.97;34.06;95138.97;5009378;28;20198;-58
2022/01/30 09:15:06;;;;;;;29.65;14.20;;;;;;;8.95;33.83;95136.63;5008447;28;20614;-56
2022/01/30 09:17:33;;;;;;;21.52;12.90;;;;;;;9.53;33.76;95123.00;5008818;28;20748;-57
2022/01/30 09:20:00;;;;;;;46.75;26.85;;;;;;;9.59;34.46;95136.94;5008589;28;20197;-62
2022/01/30 09:22:27;;;;;;;20.38;11.20;;;;;;;8.82;34.31;95131.69;5009495;28;20276;-58
2022/01/30 09:24:54;;;;;;;25.83;13.57;;;;;;;9.29;35.43;95141.81;5008821;28;20319;-55
2022/01/30 09:27:21;;;;;;;22.17;10.82;;;;;;;10.45;32.88;95131.66;5008534;28;20271;-57
2022/01/30 09:29:48;;;;;;;22.23;10.70;;;;;;;10.74;32.41;95119.03;5008360;28;20288;-55
2022/01/30 09:32:15;;;;;;;20.83;9.30;;;;;;;11.50;30.97;95107.19;5008853;28;20201;-56
2022/01/30 09:34:41;;;;;;;16.65;8.65;;;;;;;11.91;29.81;95093.22;5008124;28;20658;-59
2022/01/30 09:37:09;;;;;;;17.83;9.23;;;;;;;12.09;30.13;95090.13;5009363;28;20196;-60
2022/01/30 09:39:37;;;;;;;16.17;9.25;;;;;;;12.24;29.26;95071.75;5008703;28;20198;-61
2022/01/30 09:42:08;;;;;;;15.95;9.35;;;;;;;11.74;28.75;95055.88;5010529;28;20197;-61
2022/01/30 09:44:41;;;;;;;21.88;10.07;;;;;;;11.16;29.89;95060.34;5005172;28;20222;-64
2022/01/30 09:47:13;;;;;;;19.70;8.70;;;;;;;11.63;28.74;95065.53;5011986;28;20312;-62
2022/01/30 09:49:46;;;;;;;22.40;9.95;;;;;;;11.00;29.81;95052.66;5011363;28;20673;-60
2022/01/30 09:52:13;;;;;;;19.27;9.32;;;;;;;11.40;29.05;95044.19;5012799;28;20229;-60
2022/01/30 09:54:40;;;;;;;23.23;10.30;;;;;;;11.88;29.73;95041.22;5012759;28;20439;-60
2022/01/30 09:57:07;;;;;;;19.85;9.50;;;;;;;11.12;29.51;95035.66;5012492;28;20736;-62
2022/01/30 09:59:35;;;;;;;24.13;11.90;;;;;;;11.24;29.89;95004.78;5012367;28;20205;-63
2022/01/30 10:02:07;;;;;;;27.30;11.93;;;;;;;11.87;29.82;95003.69;5012295;28;20301;-61
2022/01/30 10:04:35;;;;;;;20.13;11.83;;;;;;;12.31;29.31;95017.13;5012423;28;20480;-61
2022/01/30 10:07:14;;;;;;;33.65;19.40;;;;;;;12.27;30.52;94992.41;5012383;28;20499;-63
2022/01/30 10:09:46;;;;;;;62.57;35.97;;;;;;;12.55;29.39;94989.25;5013594;28;20614;-66
2022/01/30 10:12:16;;;;;;;42.73;23.27;;;;;;;12.65;28.93;94968.19;5013191;28;20963;-63
2022/01/30 10:15:04;;;;;;;18.85;11.43;;;;;;;13.00;30.08;94976.00;5012859;28;20444;-61
2022/01/30 10:17:39;;;;;;;21.13;11.03;;;;;;;13.21;28.53;94977.53;5011715;28;20774;-62
2022/01/30 10:20:26;;;;;;;19.20;11.00;;;;;;;13.13;28.24;94986.00;5011446;28;20462;-63
2022/01/30 10:22:56;;;;;;;23.07;10.70;;;;;;;13.41;28.18;94981.16;5000002;28;20442;-64
2022/01/30 10:25:35;;;;;;;22.83;11.10;;;;;;;12.84;28.48;95003.41;4991194;28;20918;-62
2022/01/30 10:28:12;;;;;;;21.93;11.73;;;;;;;13.06;28.38;95005.75;4990376;28;20471;-62
2022/01/30 10:30:46;;;;;;;23.23;12.53;;;;;;;13.28;28.01;95000.16;4992844;28;21007;-61
2022/01/30 10:33:16;;;;;;;23.93;12.07;;;;;;;12.63;28.21;94964.25;4991328;28;20454;-62
2022/01/30 10:35:52;;;;;;;23.30;12.67;;;;;;;12.99;28.41;94979.66;4997367;28;20445;-63
2022/01/30 10:38:48;;;;;;;23.10;13.30;;;;;;;13.19;28.43;94950.69;4991700;28;20446;-62
2022/01/30 10:41:22;;;;;;;24.80;12.03;;;;;;;13.13;28.43;94949.16;4993923;28;21143;-61
2022/01/30 10:44:19;;;;;;;22.30;13.07;;;;;;;13.50;27.95;94947.94;4991488;28;20462;-63
2022/01/30 10:46:53;;;;;;;22.77;12.80;;;;;;;12.67;28.10;94944.25;4990699;28;20454;-62
2022/01/30 10:49:25;;;;;;;24.63;12.93;;;;;;;12.79;27.94;94908.72;4990832;28;20430;-63
2022/01/30 10:52:00;;;;;;;21.63;12.77;;;;;;;13.09;28.10;94911.28;4991980;28;20450;-63
2022/01/30 10:54:33;;;;;;;28.93;12.13;;;;;;;12.11;27.96;94923.34;4991264;28;20446;-62
2022/01/30 10:57:06;;;;;;;156.97;94.73;;;;;;;11.36;30.35;94932.94;4991281;28;20461;-60
2022/01/30 10:59:35;;;;;;;108.87;64.73;;;;;;;12.21;29.64;94930.41;4989943;28;20457;-62
2022/01/30 11:02:19;;;;;;;29.43;15.23;;;;;;;12.60;28.23;94923.53;4991151;28;20831;-62
2022/01/30 11:04:49;;;;;;;22.90;11.93;;;;;;;12.90;28.00;94907.63;4991119;28;20473;-62
2022/01/30 11:07:27;;;;;;;27.87;12.47;;;;;;;13.01;28.39;94917.06;4991627;28;20468;-62
2022/01/30 11:10:07;;;;;;;27.03;13.03;;;;;;;13.30;27.72;94919.09;4991521;28;20526;-63
2022/01/30 11:12:57;;;;;;;19.63;12.33;;;;;;;12.85;28.47;94907.66;4991510;28;20433;-63
2022/01/30 11:17:59;;;;;;;27.37;12.97;;;;;;;12.76;27.66;94875.09;4990794;28;20478;-60
2022/01/30 11:20:27;;;;;;;31.37;13.77;;;;;;;13.03;27.98;94848.44;4992368;28;20537;-61
2022/01/30 11:22:59;;;;;;;24.60;12.63;;;;;;;13.17;27.79;94871.25;4996313;28;20862;-60
2022/01/30 11:25:33;;;;;;;20.80;12.00;;;;;;;13.43;27.32;94868.50;4991000;28;20469;-62
2022/01/30 11:28:03;;;;;;;31.27;15.13;;;;;;;13.45;28.28;94876.91;4990631;28;20437;-51
2022/01/30 11:30:49;;;;;;;26.83;13.90;;;;;;;13.57;28.57;94874.69;4991539;28;20541;-59
2022/01/30 11:33:16;;;;;;;29.30;15.20;;;;;;;13.89;27.43;94880.25;4996154;28;20445;-62
2022/01/30 11:35:44;;;;;;;29.73;15.50;;;;;;;13.55;27.21;94871.56;4993344;28;20449;-58
2022/01/30 11:38:11;;;;;;;30.93;15.30;;;;;;;13.56;26.92;94867.84;4989938;28;20507;-58
2022/01/30 11:40:39;;;;;;;30.90;14.03;;;;;;;12.70;27.42;94876.16;4997262;28;20453;-57
2022/01/30 11:43:11;;;;;;;29.48;15.02;;;;;;;12.67;27.20;94862.78;5000152;28;20448;-56
2022/01/30 11:45:38;;;;;;;30.90;15.80;;;;;;;13.30;27.28;94864.63;4971780;28;20219;-59
2022/01/30 11:48:13;;;;;;;28.33;14.80;;;;;;;13.79;27.14;94857.44;4974484;28;20783;-60
2022/01/30 11:50:42;;;;;;;24.37;14.70;;;;;;;13.05;26.88;94852.38;4990322;28;21028;-60
2022/01/30 11:53:10;;;;;;;26.33;13.67;;;;;;;13.24;26.79;94839.38;4990513;28;20467;-59
2022/01/30 11:56:01;;;;;;;28.63;14.13;;;;;;;12.34;27.23;94835.28;4990738;28;20453;-60
2022/01/30 11:58:47;;;;;;;30.00;15.07;;;;;;;12.42;27.41;94832.13;4989008;28;20478;-60
2022/01/30 12:01:36;;;;;;;35.07;17.03;;;;;;;13.23;27.41;94834.41;4988245;28;20552;-59
2022/01/30 12:04:15;;;;;;;33.53;15.00;;;;;;;13.59;26.98;94825.19;4987828;28;20473;-60
2022/01/30 12:06:45;;;;;;;33.20;15.83;;;;;;;14.24;26.80;94774.53;4989093;28;20453;-61
2022/01/30 12:09:20;;;;;;;34.67;16.13;;;;;;;14.76;25.55;94808.72;4989881;28;20507;-61
2022/01/30 12:11:47;;;;;;;25.90;13.93;;;;;;;15.25;24.21;94817.03;4990876;28;20451;-60
2022/01/30 12:14:20;;;;;;;32.17;15.40;;;;;;;15.99;23.54;94818.81;4990750;28;20453;-61
2022/01/30 12:16:56;;;;;;;26.07;13.77;;;;;;;16.63;23.68;94804.72;4990382;28;20473;-60
2022/01/30 12:19:45;;;;;;;23.63;14.40;;;;;;;14.36;24.96;94811.84;4990182;28;20540;-61
2022/01/30 12:22:20;;;;;;;33.40;15.13;;;;;;;13.61;26.43;94813.31;4990409;28;20449;-61
2022/01/30 12:24:51;;;;;;;26.23;14.83;;;;;;;14.04;26.37;94796.59;4990354;28;20473;-60
2022/01/30 12:27:19;;;;;;;24.57;13.13;;;;;;;13.05;26.83;94789.25;4990879;28;20442;-61
2022/01/30 12:29:49;;;;;;;24.77;13.90;;;;;;;13.83;26.62;94797.09;4990124;28;20476;-61
2022/01/30 12:32:26;;;;;;;30.03;13.93;;;;;;;14.12;26.25;94780.16;4990541;28;20457;-60
2022/01/30 12:34:56;;;;;;;26.37;13.33;;;;;;;13.92;27.00;94787.53;4990202;28;20447;-60
2022/01/30 12:37:24;;;;;;;28.33;13.97;;;;;;;12.85;26.78;94789.34;4991299;28;20561;-61
2022/01/30 12:39:52;;;;;;;32.77;13.17;;;;;;;13.02;27.31;94796.88;4990191;28;20453;-60
2022/01/30 12:42:21;;;;;;;28.97;13.43;;;;;;;13.09;27.05;94785.03;4989135;28;20548;-60
2022/01/30 12:44:49;;;;;;;26.03;12.97;;;;;;;12.84;27.40;94771.22;4990151;28;20513;-61
2022/01/30 12:47:16;;;;;;;25.37;13.37;;;;;;;12.87;27.31;94763.56;4990291;28;21119;-61
2022/01/30 12:49:49;;;;;;;36.07;14.10;;;;;;;12.37;27.72;94758.53;4989918;28;20491;-60